map of MML home
MML - Airport
Location
City:  Marshall, Minnesota, United States
Name:Southwest Minnesota Regional Marshall/Ryan Field
ICAO:KMML
IATA:MML
FAA LID:MML

Details
Type:Airport (Airfield)
Use:Public/Civil
Latitude:4427'06"N (44.451722)
Longitude:9549'28"W (-95.824416)
Datum:WGS 1984
Elevation:1182 ft (360 m)
Variation:2.26E (WMM2015v2 magnetic declination)
-0.06 annual change
Runways:2
Longest:7221 × 100 ft (2201 × 30.5 m), paved

Time
Time Zone:UTC-6 (DST-5)
Local Time:

Weather
METAR:KMML 041402Z AUTO 30025G29KT 1 3/4SM HZ OVC021 M19/M22 A2991 RMK AO2 PK WND 30029/1402 VIS 3/4V3 FZRANO

Related Locations
Nearby:
Farthest:YAUG: 10654 mi / 17146 km
Augusta [Augusta Airport], WA, AU

Find:

   beyond  
but within

Other Information
Maps:
NOTAMs:
Links:
Sources:

  
  • flag of United States
  • flag of Minnesota
  

Sectional Chart

Flight Planning
at skyvector.com

Satellite Image

Google Maps Satellite view

 

Copyright © 2004-2019 Karl L. Swartz. All rights reserved.
The Great Circle Mapper name and logo are trademarks of the Great Circle Mapper.
All other trademarks mentioned herein belong to their respective owners.
Please see credits for attibutions and further copyright information.

  Follow gcmap on Facebook Follow gcmap on Twitter GCmap on LinkedIn

hCard Microformat

Geo Microformat